sensor_id;sensor_type;location;lat;lon;timestamp;temperature;humidity
21807;DHT22;11065;50.786;7.840;2022-09-12T00:01:13;16.10;52.10
21807;DHT22;11065;50.786;7.840;2022-09-12T00:03:41;16.10;52.30
21807;DHT22;11065;50.786;7.840;2022-09-12T00:06:11;16.10;52.10
21807;DHT22;11065;50.786;7.840;2022-09-12T00:08:38;16.00;52.20
21807;DHT22;11065;50.786;7.840;2022-09-12T00:11:09;16.00;52.20
21807;DHT22;11065;50.786;7.840;2022-09-12T00:13:38;16.10;52.60
21807;DHT22;11065;50.786;7.840;2022-09-12T00:16:23;16.10;52.40
21807;DHT22;11065;50.786;7.840;2022-09-12T00:18:50;16.00;52.60
21807;DHT22;11065;50.786;7.840;2022-09-12T00:21:18;16.00;52.30
21807;DHT22;11065;50.786;7.840;2022-09-12T00:23:45;15.90;52.20
21807;DHT22;11065;50.786;7.840;2022-09-12T00:26:13;16.00;52.20
21807;DHT22;11065;50.786;7.840;2022-09-12T00:28:43;15.90;52.20
21807;DHT22;11065;50.786;7.840;2022-09-12T00:31:17;15.90;52.20
21807;DHT22;11065;50.786;7.840;2022-09-12T00:33:44;15.80;52.20
21807;DHT22;11065;50.786;7.840;2022-09-12T00:36:20;15.80;52.00
21807;DHT22;11065;50.786;7.840;2022-09-12T00:38:49;15.70;52.00
21807;DHT22;11065;50.786;7.840;2022-09-12T00:41:20;15.70;51.90
21807;DHT22;11065;50.786;7.840;2022-09-12T00:43:59;15.70;52.00
21807;DHT22;11065;50.786;7.840;2022-09-12T00:46:45;15.60;52.30
21807;DHT22;11065;50.786;7.840;2022-09-12T00:49:48;15.60;52.10
21807;DHT22;11065;50.786;7.840;2022-09-12T00:52:11;15.50;52.00
21807;DHT22;11065;50.786;7.840;2022-09-12T00:54:46;15.50;52.00
21807;DHT22;11065;50.786;7.840;2022-09-12T00:57:16;15.50;52.10
21807;DHT22;11065;50.786;7.840;2022-09-12T00:59:51;15.40;51.90
21807;DHT22;11065;50.786;7.840;2022-09-12T01:02:18;15.30;52.10
21807;DHT22;11065;50.786;7.840;2022-09-12T01:04:46;15.30;51.90
21807;DHT22;11065;50.786;7.840;2022-09-12T01:07:14;15.30;51.90
21807;DHT22;11065;50.786;7.840;2022-09-12T01:09:43;15.20;51.90
21807;DHT22;11065;50.786;7.840;2022-09-12T01:12:12;15.20;52.00
21807;DHT22;11065;50.786;7.840;2022-09-12T01:14:40;15.20;52.00
21807;DHT22;11065;50.786;7.840;2022-09-12T01:17:11;15.10;52.00
21807;DHT22;11065;50.786;7.840;2022-09-12T01:24:55;15.00;53.10
21807;DHT22;11065;50.786;7.840;2022-09-12T01:38:42;14.90;53.00
21807;DHT22;11065;50.786;7.840;2022-09-12T01:43:59;14.90;52.90
21807;DHT22;11065;50.786;7.840;2022-09-12T01:46:43;14.90;53.20
21807;DHT22;11065;50.786;7.840;2022-09-12T01:49:19;14.80;53.00
21807;DHT22;11065;50.786;7.840;2022-09-12T01:51:52;14.80;52.90
21807;DHT22;11065;50.786;7.840;2022-09-12T01:54:40;14.80;52.80
21807;DHT22;11065;50.786;7.840;2022-09-12T01:57:39;14.80;53.10
21807;DHT22;11065;50.786;7.840;2022-09-12T02:00:11;14.80;53.30
21807;DHT22;11065;50.786;7.840;2022-09-12T02:05:36;14.70;53.00
21807;DHT22;11065;50.786;7.840;2022-09-12T02:08:09;14.70;53.10
21807;DHT22;11065;50.786;7.840;2022-09-12T02:10:55;14.70;52.80
21807;DHT22;11065;50.786;7.840;2022-09-12T02:13:38;14.70;53.20
21807;DHT22;11065;50.786;7.840;2022-09-12T02:16:20;14.60;53.00
21807;DHT22;11065;50.786;7.840;2022-09-12T02:18:57;14.70;52.90
21807;DHT22;11065;50.786;7.840;2022-09-12T02:21:26;14.60;53.00
21807;DHT22;11065;50.786;7.840;2022-09-12T02:24:01;14.60;52.90
21807;DHT22;11065;50.786;7.840;2022-09-12T02:26:42;14.60;53.00
21807;DHT22;11065;50.786;7.840;2022-09-12T02:29:10;14.60;53.40
21807;DHT22;11065;50.786;7.840;2022-09-12T02:31:57;14.60;53.10
21807;DHT22;11065;50.786;7.840;2022-09-12T02:34:43;14.50;53.50
21807;DHT22;11065;50.786;7.840;2022-09-12T02:37:42;14.50;53.40
21807;DHT22;11065;50.786;7.840;2022-09-12T02:40:11;14.50;53.40
21807;DHT22;11065;50.786;7.840;2022-09-12T02:42:39;14.50;53.20
21807;DHT22;11065;50.786;7.840;2022-09-12T02:45:06;14.50;53.20
21807;DHT22;11065;50.786;7.840;2022-09-12T02:47:57;14.50;53.40
21807;DHT22;11065;50.786;7.840;2022-09-12T02:50:26;14.40;53.40
21807;DHT22;11065;50.786;7.840;2022-09-12T02:52:53;14.40;53.30
21807;DHT22;11065;50.786;7.840;2022-09-12T02:55:21;14.40;53.30
21807;DHT22;11065;50.786;7.840;2022-09-12T02:57:50;14.40;53.40
21807;DHT22;11065;50.786;7.840;2022-09-12T03:00:17;14.40;53.40
21807;DHT22;11065;50.786;7.840;2022-09-12T03:05:42;14.30;53.80
21807;DHT22;11065;50.786;7.840;2022-09-12T03:14:06;14.30;53.80
21807;DHT22;11065;50.786;7.840;2022-09-12T03:19:32;14.30;53.70
21807;DHT22;11065;50.786;7.840;2022-09-12T03:25:02;14.30;54.10
21807;DHT22;11065;50.786;7.840;2022-09-12T03:27:38;14.30;53.90
21807;DHT22;11065;50.786;7.840;2022-09-12T03:30:08;14.30;53.90
21807;DHT22;11065;50.786;7.840;2022-09-12T03:32:41;14.20;53.80
21807;DHT22;11065;50.786;7.840;2022-09-12T03:35:09;14.20;53.90
21807;DHT22;11065;50.786;7.840;2022-09-12T03:37:37;14.20;53.90
21807;DHT22;11065;50.786;7.840;2022-09-12T03:40:07;14.20;53.90
21807;DHT22;11065;50.786;7.840;2022-09-12T03:42:34;14.20;53.90
21807;DHT22;11065;50.786;7.840;2022-09-12T03:45:01;14.20;53.90
21807;DHT22;11065;50.786;7.840;2022-09-12T03:47:28;14.20;53.90
21807;DHT22;11065;50.786;7.840;2022-09-12T03:49:54;14.20;53.90
21807;DHT22;11065;50.786;7.840;2022-09-12T03:52:21;14.20;53.90
21807;DHT22;11065;50.786;7.840;2022-09-12T03:54:48;14.20;54.00
21807;DHT22;11065;50.786;7.840;2022-09-12T03:57:15;14.20;54.00
21807;DHT22;11065;50.786;7.840;2022-09-12T03:59:42;14.20;54.00
21807;DHT22;11065;50.786;7.840;2022-09-12T04:02:09;14.20;54.00
21807;DHT22;11065;50.786;7.840;2022-09-12T04:04:42;14.20;54.00
21807;DHT22;11065;50.786;7.840;2022-09-12T04:07:10;14.20;54.10
21807;DHT22;11065;50.786;7.840;2022-09-12T04:09:37;14.20;54.00
21807;DHT22;11065;50.786;7.840;2022-09-12T04:12:04;14.20;54.00
21807;DHT22;11065;50.786;7.840;2022-09-12T04:14:31;14.20;54.00
21807;DHT22;11065;50.786;7.840;2022-09-12T04:16:59;14.20;53.90
21807;DHT22;11065;50.786;7.840;2022-09-12T04:19:26;14.10;53.90
21807;DHT22;11065;50.786;7.840;2022-09-12T04:21:53;14.10;53.90
21807;DHT22;11065;50.786;7.840;2022-09-12T04:24:20;14.10;53.90
21807;DHT22;11065;50.786;7.840;2022-09-12T04:26:47;14.10;54.00
21807;DHT22;11065;50.786;7.840;2022-09-12T04:29:14;14.10;54.00
21807;DHT22;11065;50.786;7.840;2022-09-12T04:31:41;14.00;54.00
21807;DHT22;11065;50.786;7.840;2022-09-12T04:34:08;14.10;54.10
21807;DHT22;11065;50.786;7.840;2022-09-12T04:36:35;14.00;54.20
21807;DHT22;11065;50.786;7.840;2022-09-12T04:39:03;14.00;54.30
21807;DHT22;11065;50.786;7.840;2022-09-12T04:41:33;14.00;54.40
21807;DHT22;11065;50.786;7.840;2022-09-12T04:44:04;14.00;54.50
21807;DHT22;11065;50.786;7.840;2022-09-12T04:46:34;14.00;54.50
21807;DHT22;11065;50.786;7.840;2022-09-12T04:49:02;14.00;54.60
21807;DHT22;11065;50.786;7.840;2022-09-12T04:51:34;14.00;54.60
21807;DHT22;11065;50.786;7.840;2022-09-12T04:54:08;14.00;54.90
21807;DHT22;11065;50.786;7.840;2022-09-12T04:56:39;14.00;54.90
21807;DHT22;11065;50.786;7.840;2022-09-12T04:59:06;14.00;54.80
21807;DHT22;11065;50.786;7.840;2022-09-12T05:01:34;14.00;54.80
21807;DHT22;11065;50.786;7.840;2022-09-12T05:04:02;14.00;54.80
21807;DHT22;11065;50.786;7.840;2022-09-12T05:06:31;14.00;54.80
21807;DHT22;11065;50.786;7.840;2022-09-12T05:08:59;14.00;54.80
21807;DHT22;11065;50.786;7.840;2022-09-12T05:11:33;14.00;54.80
21807;DHT22;11065;50.786;7.840;2022-09-12T05:14:19;14.00;54.90
21807;DHT22;11065;50.786;7.840;2022-09-12T05:16:46;14.10;54.80
21807;DHT22;11065;50.786;7.840;2022-09-12T05:39:16;14.00;55.00
21807;DHT22;11065;50.786;7.840;2022-09-12T05:41:44;14.00;54.70
21807;DHT22;11065;50.786;7.840;2022-09-12T05:44:11;14.00;54.80
21807;DHT22;11065;50.786;7.840;2022-09-12T05:46:43;14.10;55.10
21807;DHT22;11065;50.786;7.840;2022-09-12T05:49:12;14.10;55.20
21807;DHT22;11065;50.786;7.840;2022-09-12T05:51:43;14.10;55.20
21807;DHT22;11065;50.786;7.840;2022-09-12T05:54:13;14.10;55.30
21807;DHT22;11065;50.786;7.840;2022-09-12T05:56:41;14.20;55.40
21807;DHT22;11065;50.786;7.840;2022-09-12T05:59:17;14.20;55.50
21807;DHT22;11065;50.786;7.840;2022-09-12T06:01:44;14.20;55.70
21807;DHT22;11065;50.786;7.840;2022-09-12T06:07:08;14.30;56.50
21807;DHT22;11065;50.786;7.840;2022-09-12T06:09:34;14.40;55.70
21807;DHT22;11065;50.786;7.840;2022-09-12T06:12:01;14.40;55.90
21807;DHT22;11065;50.786;7.840;2022-09-12T06:14:27;14.50;56.00
21807;DHT22;11065;50.786;7.840;2022-09-12T06:16:53;14.50;56.00
21807;DHT22;11065;50.786;7.840;2022-09-12T06:19:21;14.60;56.00
21807;DHT22;11065;50.786;7.840;2022-09-12T06:21:48;14.60;56.00
21807;DHT22;11065;50.786;7.840;2022-09-12T06:24:15;14.60;56.00
21807;DHT22;11065;50.786;7.840;2022-09-12T06:27:04;14.70;56.10
21807;DHT22;11065;50.786;7.840;2022-09-12T06:29:30;14.70;56.10
21807;DHT22;11065;50.786;7.840;2022-09-12T06:31:57;14.70;56.40
21807;DHT22;11065;50.786;7.840;2022-09-12T06:34:23;14.70;56.20
21807;DHT22;11065;50.786;7.840;2022-09-12T06:36:51;14.80;56.30
21807;DHT22;11065;50.786;7.840;2022-09-12T06:39:19;14.90;56.40
21807;DHT22;11065;50.786;7.840;2022-09-12T06:41:47;14.90;56.50
21807;DHT22;11065;50.786;7.840;2022-09-12T06:44:20;15.00;56.50
21807;DHT22;11065;50.786;7.840;2022-09-12T06:49:16;15.10;56.60
21807;DHT22;11065;50.786;7.840;2022-09-12T06:51:42;15.20;56.30
21807;DHT22;11065;50.786;7.840;2022-09-12T06:54:12;15.20;56.30
21807;DHT22;11065;50.786;7.840;2022-09-12T06:56:38;15.30;56.40
21807;DHT22;11065;50.786;7.840;2022-09-12T06:59:05;15.30;56.30
21807;DHT22;11065;50.786;7.840;2022-09-12T07:01:31;15.30;56.30
21807;DHT22;11065;50.786;7.840;2022-09-12T07:03:59;15.40;56.40
21807;DHT22;11065;50.786;7.840;2022-09-12T07:06:28;15.40;56.60
21807;DHT22;11065;50.786;7.840;2022-09-12T07:09:11;15.50;56.60
21807;DHT22;11065;50.786;7.840;2022-09-12T07:11:39;15.50;56.60
21807;DHT22;11065;50.786;7.840;2022-09-12T07:14:07;15.50;56.70
21807;DHT22;11065;50.786;7.840;2022-09-12T07:16:35;15.50;56.70
21807;DHT22;11065;50.786;7.840;2022-09-12T07:19:03;15.60;56.80
21807;DHT22;11065;50.786;7.840;2022-09-12T07:21:29;15.70;57.10
21807;DHT22;11065;50.786;7.840;2022-09-12T07:23:57;15.70;57.20
21807;DHT22;11065;50.786;7.840;2022-09-12T07:26:26;15.70;57.10
21807;DHT22;11065;50.786;7.840;2022-09-12T07:28:54;15.80;57.50
21807;DHT22;11065;50.786;7.840;2022-09-12T07:31:41;15.80;57.40
21807;DHT22;11065;50.786;7.840;2022-09-12T07:34:08;15.90;57.60
21807;DHT22;11065;50.786;7.840;2022-09-12T07:36:35;16.00;57.70
21807;DHT22;11065;50.786;7.840;2022-09-12T07:39:02;16.10;57.90
21807;DHT22;11065;50.786;7.840;2022-09-12T07:42:06;16.20;58.00
21807;DHT22;11065;50.786;7.840;2022-09-12T07:44:51;16.40;58.00
21807;DHT22;11065;50.786;7.840;2022-09-12T07:47:37;16.50;58.10
21807;DHT22;11065;50.786;7.840;2022-09-12T07:50:04;16.60;57.90
21807;DHT22;11065;50.786;7.840;2022-09-12T07:52:31;16.70;58.40
21807;DHT22;11065;50.786;7.840;2022-09-12T07:54:58;16.80;58.20
21807;DHT22;11065;50.786;7.840;2022-09-12T07:57:24;16.90;58.20
21807;DHT22;11065;50.786;7.840;2022-09-12T07:59:51;17.00;58.70
21807;DHT22;11065;50.786;7.840;2022-09-12T08:02:19;17.10;58.30
21807;DHT22;11065;50.786;7.840;2022-09-12T08:04:46;17.20;58.30
21807;DHT22;11065;50.786;7.840;2022-09-12T08:07:14;17.30;58.50
21807;DHT22;11065;50.786;7.840;2022-09-12T08:09:41;17.50;58.50
21807;DHT22;11065;50.786;7.840;2022-09-12T08:12:09;17.60;58.70
21807;DHT22;11065;50.786;7.840;2022-09-12T08:14:35;17.70;58.80
21807;DHT22;11065;50.786;7.840;2022-09-12T08:17:02;17.90;58.80
21807;DHT22;11065;50.786;7.840;2022-09-12T08:19:29;18.10;58.80
21807;DHT22;11065;50.786;7.840;2022-09-12T08:21:57;18.30;58.70
21807;DHT22;11065;50.786;7.840;2022-09-12T08:24:24;18.40;59.00
21807;DHT22;11065;50.786;7.840;2022-09-12T08:26:50;18.50;58.40
21807;DHT22;11065;50.786;7.840;2022-09-12T08:29:17;18.70;58.40
21807;DHT22;11065;50.786;7.840;2022-09-12T08:31:44;18.90;58.70
21807;DHT22;11065;50.786;7.840;2022-09-12T08:34:12;19.10;59.10
21807;DHT22;11065;50.786;7.840;2022-09-12T08:36:39;19.40;59.30
21807;DHT22;11065;50.786;7.840;2022-09-12T08:39:06;19.80;59.30
21807;DHT22;11065;50.786;7.840;2022-09-12T08:41:44;20.20;59.30
21807;DHT22;11065;50.786;7.840;2022-09-12T08:47:14;21.00;59.10
21807;DHT22;11065;50.786;7.840;2022-09-12T08:55:39;22.10;56.40
21807;DHT22;11065;50.786;7.840;2022-09-12T08:58:13;22.40;56.40
21807;DHT22;11065;50.786;7.840;2022-09-12T09:03:48;23.00;55.20
21807;DHT22;11065;50.786;7.840;2022-09-12T09:06:46;23.30;55.00
21807;DHT22;11065;50.786;7.840;2022-09-12T09:09:28;23.70;55.40
21807;DHT22;11065;50.786;7.840;2022-09-12T09:13:06;24.20;56.70
21807;DHT22;11065;50.786;7.840;2022-09-12T09:18:32;25.40;54.40
21807;DHT22;11065;50.786;7.840;2022-09-12T09:20:55;25.80;54.50
21807;DHT22;11065;50.786;7.840;2022-09-12T09:23:43;26.30;53.20
21807;DHT22;11065;50.786;7.840;2022-09-12T09:26:19;26.70;54.10
21807;DHT22;11065;50.786;7.840;2022-09-12T09:29:03;27.30;53.20
21807;DHT22;11065;50.786;7.840;2022-09-12T09:31:36;27.80;52.10
21807;DHT22;11065;50.786;7.840;2022-09-12T09:34:12;28.30;52.90
21807;DHT22;11065;50.786;7.840;2022-09-12T09:36:54;28.90;51.80
21807;DHT22;11065;50.786;7.840;2022-09-12T09:45:30;30.60;49.30
21807;DHT22;11065;50.786;7.840;2022-09-12T09:50:46;31.70;49.60
21807;DHT22;11065;50.786;7.840;2022-09-12T09:53:42;32.30;49.70
21807;DHT22;11065;50.786;7.840;2022-09-12T09:56:37;32.80;47.00
21807;DHT22;11065;50.786;7.840;2022-09-12T10:01:47;33.90;45.60
21807;DHT22;11065;50.786;7.840;2022-09-12T10:04:20;34.30;46.00
21807;DHT22;11065;50.786;7.840;2022-09-12T10:06:51;34.60;44.90
21807;DHT22;11065;50.786;7.840;2022-09-12T10:09:22;35.00;44.60
21807;DHT22;11065;50.786;7.840;2022-09-12T10:11:50;35.40;44.30
21807;DHT22;11065;50.786;7.840;2022-09-12T10:14:38;35.70;43.00
21807;DHT22;11065;50.786;7.840;2022-09-12T10:20:44;36.40;40.60
21807;DHT22;11065;50.786;7.840;2022-09-12T10:25:54;37.00;40.30
21807;DHT22;11065;50.786;7.840;2022-09-12T10:28:27;37.30;38.10
21807;DHT22;11065;50.786;7.840;2022-09-12T10:30:56;37.50;39.40
21807;DHT22;11065;50.786;7.840;2022-09-12T10:33:25;37.80;39.40
21807;DHT22;11065;50.786;7.840;2022-09-12T10:35:53;38.20;39.40
21807;DHT22;11065;50.786;7.840;2022-09-12T10:38:26;38.50;38.90
21807;DHT22;11065;50.786;7.840;2022-09-12T10:41:03;38.70;37.70
21807;DHT22;11065;50.786;7.840;2022-09-12T10:43:40;39.00;37.50
21807;DHT22;11065;50.786;7.840;2022-09-12T10:48:51;39.80;35.60
21807;DHT22;11065;50.786;7.840;2022-09-12T10:51:37;40.00;34.10
21807;DHT22;11065;50.786;7.840;2022-09-12T10:54:07;40.20;35.50
21807;DHT22;11065;50.786;7.840;2022-09-12T11:04:40;41.20;33.20
21807;DHT22;11065;50.786;7.840;2022-09-12T11:13:10;42.10;32.10
21807;DHT22;11065;50.786;7.840;2022-09-12T11:18:48;42.40;30.70
21807;DHT22;11065;50.786;7.840;2022-09-12T11:30:02;41.30;30.40
21807;DHT22;11065;50.786;7.840;2022-09-12T11:38:12;40.90;29.40
21807;DHT22;11065;50.786;7.840;2022-09-12T11:40:49;40.90;29.60
21807;DHT22;11065;50.786;7.840;2022-09-12T11:54:35;40.60;27.70
21807;DHT22;11065;50.786;7.840;2022-09-12T11:57:24;40.40;27.20
21807;DHT22;11065;50.786;7.840;2022-09-12T12:00:02;40.20;28.20
21807;DHT22;11065;50.786;7.840;2022-09-12T12:05:48;39.80;28.00
21807;DHT22;11065;50.786;7.840;2022-09-12T12:08:21;39.70;28.40
21807;DHT22;11065;50.786;7.840;2022-09-12T12:11:02;39.70;28.80
21807;DHT22;11065;50.786;7.840;2022-09-12T12:13:33;39.80;28.60
21807;DHT22;11065;50.786;7.840;2022-09-12T12:16:07;40.00;28.20
21807;DHT22;11065;50.786;7.840;2022-09-12T12:18:38;40.10;28.20
21807;DHT22;11065;50.786;7.840;2022-09-12T12:34:40;40.10;27.20
21807;DHT22;11065;50.786;7.840;2022-09-12T12:48:09;39.40;27.30
21807;DHT22;11065;50.786;7.840;2022-09-12T12:50:37;39.40;27.50
21807;DHT22;11065;50.786;7.840;2022-09-12T12:53:22;39.30;27.50
21807;DHT22;11065;50.786;7.840;2022-09-12T12:55:52;39.20;27.30
21807;DHT22;11065;50.786;7.840;2022-09-12T13:01:20;39.20;27.50
21807;DHT22;11065;50.786;7.840;2022-09-12T13:04:02;39.30;27.50
21807;DHT22;11065;50.786;7.840;2022-09-12T13:06:57;39.40;27.10
21807;DHT22;11065;50.786;7.840;2022-09-12T13:09:44;39.30;26.50
21807;DHT22;11065;50.786;7.840;2022-09-12T13:12:24;39.20;26.90
21807;DHT22;11065;50.786;7.840;2022-09-12T13:14:56;39.10;26.90
21807;DHT22;11065;50.786;7.840;2022-09-12T13:17:39;39.10;26.90
21807;DHT22;11065;50.786;7.840;2022-09-12T13:20:16;38.90;26.30
21807;DHT22;11065;50.786;7.840;2022-09-12T13:22:54;38.80;27.20
21807;DHT22;11065;50.786;7.840;2022-09-12T13:28:00;38.40;27.00
21807;DHT22;11065;50.786;7.840;2022-09-12T13:30:34;38.30;27.10
21807;DHT22;11065;50.786;7.840;2022-09-12T13:44:19;38.00;26.90
21807;DHT22;11065;50.786;7.840;2022-09-12T13:46:47;37.90;27.00
21807;DHT22;11065;50.786;7.840;2022-09-12T13:49:26;37.90;27.10
21807;DHT22;11065;50.786;7.840;2022-09-12T13:52:01;37.80;26.60
21807;DHT22;11065;50.786;7.840;2022-09-12T13:54:29;37.70;26.90
21807;DHT22;11065;50.786;7.840;2022-09-12T13:56:57;37.60;26.90
21807;DHT22;11065;50.786;7.840;2022-09-12T13:59:25;37.50;26.90
21807;DHT22;11065;50.786;7.840;2022-09-12T14:01:52;37.30;26.90
21807;DHT22;11065;50.786;7.840;2022-09-12T14:04:24;37.30;27.20
21807;DHT22;11065;50.786;7.840;2022-09-12T14:07:16;37.30;27.40
21807;DHT22;11065;50.786;7.840;2022-09-12T14:09:52;37.30;27.00
21807;DHT22;11065;50.786;7.840;2022-09-12T14:12:30;37.30;27.00
21807;DHT22;11065;50.786;7.840;2022-09-12T14:14:57;37.20;27.00
21807;DHT22;11065;50.786;7.840;2022-09-12T14:17:35;37.10;27.00
21807;DHT22;11065;50.786;7.840;2022-09-12T14:20:10;37.10;27.00
21807;DHT22;11065;50.786;7.840;2022-09-12T14:22:37;37.00;27.20
21807;DHT22;11065;50.786;7.840;2022-09-12T14:25:05;37.00;27.20
21807;DHT22;11065;50.786;7.840;2022-09-12T14:27:40;37.00;27.30
21807;DHT22;11065;50.786;7.840;2022-09-12T14:30:28;37.10;27.20
21807;DHT22;11065;50.786;7.840;2022-09-12T14:35:49;37.00;27.20
21807;DHT22;11065;50.786;7.840;2022-09-12T14:38:30;37.00;27.20
21807;DHT22;11065;50.786;7.840;2022-09-12T14:41:04;36.80;27.30
21807;DHT22;11065;50.786;7.840;2022-09-12T14:43:34;36.80;27.20
21807;DHT22;11065;50.786;7.840;2022-09-12T14:46:05;36.70;27.30
21807;DHT22;11065;50.786;7.840;2022-09-12T14:48:43;36.70;27.40
21807;DHT22;11065;50.786;7.840;2022-09-12T14:51:20;36.60;27.20
21807;DHT22;11065;50.786;7.840;2022-09-12T14:53:48;36.50;27.20
21807;DHT22;11065;50.786;7.840;2022-09-12T14:56:16;36.30;27.00
21807;DHT22;11065;50.786;7.840;2022-09-12T14:58:42;36.20;27.00
21807;DHT22;11065;50.786;7.840;2022-09-12T15:03:49;35.80;27.10
21807;DHT22;11065;50.786;7.840;2022-09-12T15:06:30;35.70;27.00
21807;DHT22;11065;50.786;7.840;2022-09-12T15:09:01;35.50;27.20
21807;DHT22;11065;50.786;7.840;2022-09-12T15:11:28;35.40;27.30
21807;DHT22;11065;50.786;7.840;2022-09-12T15:13:55;35.30;27.30
21807;DHT22;11065;50.786;7.840;2022-09-12T15:16:21;35.20;27.50
21807;DHT22;11065;50.786;7.840;2022-09-12T15:18:48;35.20;27.60
21807;DHT22;11065;50.786;7.840;2022-09-12T15:21:17;35.20;28.10
21807;DHT22;11065;50.786;7.840;2022-09-12T15:23:51;35.20;27.80
21807;DHT22;11065;50.786;7.840;2022-09-12T15:26:23;35.10;27.80
21807;DHT22;11065;50.786;7.840;2022-09-12T15:28:52;35.10;27.80
21807;DHT22;11065;50.786;7.840;2022-09-12T15:31:29;35.10;28.00
21807;DHT22;11065;50.786;7.840;2022-09-12T15:33:58;35.00;28.00
21807;DHT22;11065;50.786;7.840;2022-09-12T15:36:26;35.00;28.00
21807;DHT22;11065;50.786;7.840;2022-09-12T15:38:54;34.90;27.90
21807;DHT22;11065;50.786;7.840;2022-09-12T15:41:24;34.80;27.90
21807;DHT22;11065;50.786;7.840;2022-09-12T15:43:52;34.80;27.90
21807;DHT22;11065;50.786;7.840;2022-09-12T15:46:19;34.70;27.90
21807;DHT22;11065;50.786;7.840;2022-09-12T15:48:46;34.60;27.80
21807;DHT22;11065;50.786;7.840;2022-09-12T15:51:19;34.60;27.80
21807;DHT22;11065;50.786;7.840;2022-09-12T15:53:48;34.40;27.90
21807;DHT22;11065;50.786;7.840;2022-09-12T15:56:16;34.40;27.90
21807;DHT22;11065;50.786;7.840;2022-09-12T15:58:44;34.30;28.00
21807;DHT22;11065;50.786;7.840;2022-09-12T16:01:24;34.30;28.00
21807;DHT22;11065;50.786;7.840;2022-09-12T16:03:51;34.20;28.10
21807;DHT22;11065;50.786;7.840;2022-09-12T16:06:18;34.10;28.00
21807;DHT22;11065;50.786;7.840;2022-09-12T16:08:45;34.10;28.00
21807;DHT22;11065;50.786;7.840;2022-09-12T16:11:17;34.00;28.00
21807;DHT22;11065;50.786;7.840;2022-09-12T16:13:45;33.80;28.00
21807;DHT22;11065;50.786;7.840;2022-09-12T16:16:11;33.60;27.80
21807;DHT22;11065;50.786;7.840;2022-09-12T16:18:39;33.40;27.80
21807;DHT22;11065;50.786;7.840;2022-09-12T16:21:06;33.10;27.80
21807;DHT22;11065;50.786;7.840;2022-09-12T16:23:42;32.90;27.90
21807;DHT22;11065;50.786;7.840;2022-09-12T16:26:08;32.60;28.00
21807;DHT22;11065;50.786;7.840;2022-09-12T16:28:35;32.40;28.20
21807;DHT22;11065;50.786;7.840;2022-09-12T16:31:04;32.20;28.20
21807;DHT22;11065;50.786;7.840;2022-09-12T16:33:31;32.00;28.30
21807;DHT22;11065;50.786;7.840;2022-09-12T16:36:10;31.90;28.40
21807;DHT22;11065;50.786;7.840;2022-09-12T16:38:48;31.70;28.80
21807;DHT22;11065;50.786;7.840;2022-09-12T16:41:18;31.50;28.90
21807;DHT22;11065;50.786;7.840;2022-09-12T16:43:46;31.30;28.80
21807;DHT22;11065;50.786;7.840;2022-09-12T16:46:19;31.20;28.90
21807;DHT22;11065;50.786;7.840;2022-09-12T16:48:49;31.00;29.20
21807;DHT22;11065;50.786;7.840;2022-09-12T16:51:21;30.90;29.20
21807;DHT22;11065;50.786;7.840;2022-09-12T16:53:49;30.70;29.30
21807;DHT22;11065;50.786;7.840;2022-09-12T16:56:17;30.60;29.30
21807;DHT22;11065;50.786;7.840;2022-09-12T16:58:44;30.60;29.50
21807;DHT22;11065;50.786;7.840;2022-09-12T17:01:17;30.40;29.50
21807;DHT22;11065;50.786;7.840;2022-09-12T17:03:44;30.40;29.80
21807;DHT22;11065;50.786;7.840;2022-09-12T17:06:13;30.20;29.60
21807;DHT22;11065;50.786;7.840;2022-09-12T17:08:42;30.10;29.90
21807;DHT22;11065;50.786;7.840;2022-09-12T17:11:21;30.00;30.00
21807;DHT22;11065;50.786;7.840;2022-09-12T17:13:50;29.80;30.00
21807;DHT22;11065;50.786;7.840;2022-09-12T17:16:36;29.70;30.10
21807;DHT22;11065;50.786;7.840;2022-09-12T17:19:03;29.60;30.20
21807;DHT22;11065;50.786;7.840;2022-09-12T17:21:30;29.40;30.30
21807;DHT22;11065;50.786;7.840;2022-09-12T17:23:57;29.30;30.50
21807;DHT22;11065;50.786;7.840;2022-09-12T17:26:25;29.10;30.60
21807;DHT22;11065;50.786;7.840;2022-09-12T17:28:52;29.00;30.90
21807;DHT22;11065;50.786;7.840;2022-09-12T17:31:19;28.80;31.00
21807;DHT22;11065;50.786;7.840;2022-09-12T17:33:46;28.60;31.10
21807;DHT22;11065;50.786;7.840;2022-09-12T17:36:16;28.50;31.30
21807;DHT22;11065;50.786;7.840;2022-09-12T17:38:44;28.30;31.50
21807;DHT22;11065;50.786;7.840;2022-09-12T17:41:23;28.10;31.60
21807;DHT22;11065;50.786;7.840;2022-09-12T17:43:55;27.90;32.20
21807;DHT22;11065;50.786;7.840;2022-09-12T17:46:25;27.80;32.10
21807;DHT22;11065;50.786;7.840;2022-09-12T17:48:54;27.70;32.10
21807;DHT22;11065;50.786;7.840;2022-09-12T17:51:22;27.50;32.70
21807;DHT22;11065;50.786;7.840;2022-09-12T17:53:59;27.30;32.40
21807;DHT22;11065;50.786;7.840;2022-09-12T17:56:28;27.10;32.90
21807;DHT22;11065;50.786;7.840;2022-09-12T17:58:56;27.00;32.70
21807;DHT22;11065;50.786;7.840;2022-09-12T18:01:23;26.80;32.90
21807;DHT22;11065;50.786;7.840;2022-09-12T18:04:09;26.70;33.00
21807;DHT22;11065;50.786;7.840;2022-09-12T18:06:36;26.50;33.10
21807;DHT22;11065;50.786;7.840;2022-09-12T18:09:06;26.40;33.30
21807;DHT22;11065;50.786;7.840;2022-09-12T18:11:34;26.30;33.60
21807;DHT22;11065;50.786;7.840;2022-09-12T18:14:00;26.10;33.60
21807;DHT22;11065;50.786;7.840;2022-09-12T18:16:28;25.90;33.60
21807;DHT22;11065;50.786;7.840;2022-09-12T18:19:00;25.80;33.80
21807;DHT22;11065;50.786;7.840;2022-09-12T18:21:28;25.60;34.10
21807;DHT22;11065;50.786;7.840;2022-09-12T18:23:56;25.50;34.10
21807;DHT22;11065;50.786;7.840;2022-09-12T18:26:26;25.30;34.20
21807;DHT22;11065;50.786;7.840;2022-09-12T18:28:53;25.30;34.40
21807;DHT22;11065;50.786;7.840;2022-09-12T18:31:23;25.10;34.50
21807;DHT22;11065;50.786;7.840;2022-09-12T18:33:50;25.00;34.70
21807;DHT22;11065;50.786;7.840;2022-09-12T18:36:18;24.80;34.70
21807;DHT22;11065;50.786;7.840;2022-09-12T18:38:45;24.80;34.90
21807;DHT22;11065;50.786;7.840;2022-09-12T18:41:16;24.60;35.10
21807;DHT22;11065;50.786;7.840;2022-09-12T18:43:43;24.50;35.30
21807;DHT22;11065;50.786;7.840;2022-09-12T18:46:13;24.40;35.40
21807;DHT22;11065;50.786;7.840;2022-09-12T18:48:40;24.30;35.60
21807;DHT22;11065;50.786;7.840;2022-09-12T18:53:36;24.10;36.00
21807;DHT22;11065;50.786;7.840;2022-09-12T18:56:06;24.00;35.90
21807;DHT22;11065;50.786;7.840;2022-09-12T18:58:37;23.90;36.20
21807;DHT22;11065;50.786;7.840;2022-09-12T19:01:21;23.80;36.20
21807;DHT22;11065;50.786;7.840;2022-09-12T19:03:49;23.70;36.80
21807;DHT22;11065;50.786;7.840;2022-09-12T19:06:20;23.60;36.90
21807;DHT22;11065;50.786;7.840;2022-09-12T19:08:49;23.50;36.60
21807;DHT22;11065;50.786;7.840;2022-09-12T19:11:17;23.40;36.80